Ramona, Texas
Current Conditions -  °F | °C
As of 4:55 AM on Friday 19 Dec 2014 (Local Time) from KT65 Reporting Station
Haze Haze  
Wind Chill: 18°   Ceiling: 900
Heat Index: 18°   Visibility: 4mi
Dew Point: 16°   Wind: 5mph
Humidity: 93%   Direction: 310°NW
Pressure: 29.95"   Gusts: NA
Location:  26.1701°N, 97.9943°W
Report Text: KT65 191055Z AUTO 31004KT 4SM BR SCT003 OVC009 18/16 A2995 RMK AO2 T01750163
Loading
Personal Weather Stations






























Interactive Weather Map New forecast layout! Learn more

10-Day Weather Forecast

Advertisements
Track Severe Weather on mobile